createdAt,value
2023-05-09T00:01:40.218Z,77.12
2023-05-09T00:04:07.443Z,78.18
2023-05-09T00:06:34.440Z,77.79
2023-05-09T00:09:02.372Z,79.23
2023-05-09T00:11:29.312Z,80.07
2023-05-09T00:13:56.654Z,80.54
2023-05-09T00:16:24.444Z,80.05
2023-05-09T00:18:51.847Z,79.91
2023-05-09T00:21:18.844Z,79.66
2023-05-09T00:23:47.431Z,79.47
2023-05-09T00:26:14.374Z,78.28
2023-05-09T00:28:43.420Z,78.13
2023-05-09T00:31:10.547Z,78.69
2023-05-09T00:33:37.531Z,78.54
2023-05-09T00:36:04.728Z,78.91
2023-05-09T00:38:31.752Z,79.01
2023-05-09T00:40:58.848Z,78.49
2023-05-09T00:43:25.910Z,78.65
2023-05-09T00:45:53.071Z,78.61
2023-05-09T00:48:20.170Z,77.11
2023-05-09T00:50:52.803Z,77.25
2023-05-09T00:53:20.957Z,78.05
2023-05-09T00:55:48.359Z,77.65
2023-05-09T00:58:15.779Z,77.05
2023-05-09T01:00:43.612Z,76.78
2023-05-09T01:03:11.673Z,76.41
2023-05-09T01:05:51.911Z,75.59
2023-05-09T01:08:28.188Z,76.47
2023-05-09T01:11:18.082Z,77.16
2023-05-09T01:13:57.982Z,77.51
2023-05-09T01:17:03.149Z,77.11
2023-05-09T01:19:33.489Z,77.34
2023-05-09T01:22:04.945Z,77.52
2023-05-09T01:24:34.950Z,76.59
2023-05-09T01:27:20.948Z,76.26
2023-05-09T01:29:51.244Z,76.78
2023-05-09T01:32:23.132Z,76.59
2023-05-09T01:34:54.608Z,77.05
2023-05-09T01:37:30.733Z,76.63
2023-05-09T01:40:05.975Z,76.24
2023-05-09T01:42:41.457Z,77.31
2023-05-09T01:45:10.814Z,77.79
2023-05-09T01:47:40.523Z,77.33
2023-05-09T01:50:11.084Z,76.07
2023-05-09T01:52:39.135Z,76.11
2023-05-09T01:55:07.981Z,76.72
2023-05-09T01:57:37.688Z,75.44
2023-05-09T02:00:08.143Z,74.76
2023-05-09T02:02:41.096Z,73.75
2023-05-09T02:05:12.333Z,74.35
2023-05-09T02:07:41.985Z,75.00
2023-05-09T02:10:10.811Z,74.78
2023-05-09T02:12:38.468Z,75.81
2023-05-09T02:15:06.753Z,76.00
2023-05-09T02:17:33.962Z,76.48
2023-05-09T02:20:05.500Z,77.29
2023-05-09T02:22:34.758Z,76.52
2023-05-09T02:25:05.046Z,76.88
2023-05-09T02:27:35.091Z,76.59
2023-05-09T02:30:07.616Z,76.66
2023-05-09T02:32:36.013Z,77.41
2023-05-09T02:35:04.379Z,77.87
2023-05-09T02:37:31.975Z,77.68
2023-05-09T02:39:59.541Z,77.65
2023-05-09T02:42:30.393Z,77.99
2023-05-09T02:44:57.482Z,75.59
2023-05-09T02:47:25.870Z,76.44
2023-05-09T02:49:53.137Z,75.66
2023-05-09T02:52:21.578Z,76.72
2023-05-09T02:54:48.725Z,74.78
2023-05-09T02:57:16.012Z,76.10
2023-05-09T02:59:43.026Z,77.13
2023-05-09T03:02:09.970Z,77.70
2023-05-09T03:04:37.232Z,77.54
2023-05-09T03:07:04.599Z,79.49
2023-05-09T03:09:33.699Z,76.48
2023-05-09T03:12:01.043Z,75.87
2023-05-09T03:14:28.076Z,76.74
2023-05-09T03:16:55.213Z,76.05
2023-05-09T03:19:28.337Z,76.86
2023-05-09T03:21:55.480Z,77.29
2023-05-09T03:24:23.311Z,77.49
2023-05-09T03:26:50.443Z,77.77
2023-05-09T03:29:17.344Z,77.71
2023-05-09T03:31:44.363Z,78.67
2023-05-09T03:34:15.322Z,77.71
2023-05-09T03:36:44.537Z,77.86
2023-05-09T03:39:13.547Z,77.75
2023-05-09T03:41:44.467Z,76.81
2023-05-09T03:44:12.662Z,76.63
2023-05-09T03:46:39.699Z,77.71
2023-05-09T03:49:07.202Z,79.37
2023-05-09T03:51:35.259Z,79.17
2023-05-09T03:54:04.785Z,77.26
2023-05-09T03:56:32.003Z,77.45
2023-05-09T03:58:59.307Z,77.63
2023-05-09T04:01:27.537Z,76.91
2023-05-09T04:03:57.788Z,77.13
2023-05-09T04:06:26.151Z,77.45
2023-05-09T04:08:53.222Z,77.56
2023-05-09T04:11:21.852Z,78.20
2023-05-09T04:13:49.623Z,77.21
2023-05-09T04:16:30.819Z,76.79
2023-05-09T04:18:58.061Z,77.60
2023-05-09T04:21:25.934Z,77.66
2023-05-09T04:23:57.073Z,75.34
2023-05-09T04:26:31.646Z,75.46
2023-05-09T04:28:59.815Z,75.28
2023-05-09T04:31:27.998Z,76.03
2023-05-09T04:33:56.345Z,76.57
2023-05-09T04:36:23.546Z,76.04
2023-05-09T04:38:55.024Z,76.28
2023-05-09T04:41:24.948Z,75.95
2023-05-09T04:43:52.778Z,75.10
2023-05-09T04:46:23.096Z,75.34
2023-05-09T04:48:51.495Z,74.08
2023-05-09T04:51:19.488Z,74.11
2023-05-09T04:53:46.777Z,74.59
2023-05-09T04:56:14.901Z,75.20
2023-05-09T04:58:42.739Z,75.07
2023-05-09T05:01:11.342Z,75.41
2023-05-09T05:03:39.333Z,75.26
2023-05-09T05:06:07.058Z,75.14
2023-05-09T05:08:36.237Z,75.17
2023-05-09T05:11:03.587Z,76.06
2023-05-09T05:13:31.263Z,76.98
2023-05-09T05:16:01.262Z,77.25
2023-05-09T05:18:28.317Z,78.22
2023-05-09T05:20:59.112Z,78.90
2023-05-09T05:23:26.334Z,78.47
2023-05-09T05:25:54.848Z,78.12
2023-05-09T05:28:22.575Z,78.31
2023-05-09T05:30:49.819Z,77.18
2023-05-09T05:33:16.891Z,77.48
2023-05-09T05:35:44.332Z,76.95
2023-05-09T05:38:11.693Z,76.69
2023-05-09T05:40:39.488Z,77.08
2023-05-09T05:43:07.759Z,77.12
2023-05-09T05:45:38.091Z,77.47
2023-05-09T05:48:08.023Z,77.35
2023-05-09T05:50:36.758Z,77.92
2023-05-09T05:53:04.562Z,76.24
2023-05-09T05:55:31.610Z,76.23
2023-05-09T05:57:58.675Z,76.90
2023-05-09T06:00:26.045Z,77.35
2023-05-09T06:03:02.145Z,76.16
2023-05-09T06:05:45.075Z,76.40
2023-05-09T06:08:12.693Z,76.61
2023-05-09T06:10:39.910Z,75.08
2023-05-09T06:13:07.400Z,75.98
2023-05-09T06:15:36.044Z,76.14
2023-05-09T06:18:03.706Z,75.86
2023-05-09T06:20:30.957Z,76.49
2023-05-09T06:22:58.308Z,77.20
2023-05-09T06:25:25.455Z,77.32
2023-05-09T06:27:52.428Z,77.67
2023-05-09T06:30:26.464Z,78.07
2023-05-09T06:32:55.213Z,77.94
2023-05-09T06:35:22.606Z,76.01
2023-05-09T06:37:50.299Z,76.11
2023-05-09T06:40:17.453Z,76.59
2023-05-09T06:42:45.193Z,77.44
2023-05-09T06:45:12.527Z,77.86
2023-05-09T06:47:39.769Z,77.19
2023-05-09T06:50:07.614Z,77.47
2023-05-09T06:52:34.632Z,78.17
2023-05-09T06:55:01.922Z,77.98
2023-05-09T06:57:29.177Z,78.47
2023-05-09T06:59:56.329Z,78.96
2023-05-09T07:02:23.333Z,76.86
2023-05-09T07:04:50.552Z,78.12
2023-05-09T07:07:17.731Z,76.75
2023-05-09T07:09:44.717Z,77.34
2023-05-09T07:12:11.736Z,75.13
2023-05-09T07:14:38.779Z,75.37
2023-05-09T07:17:22.072Z,76.61
2023-05-09T07:19:50.841Z,78.75
2023-05-09T07:22:17.961Z,79.59
2023-05-09T07:24:46.517Z,81.10
2023-05-09T07:27:13.708Z,78.97
2023-05-09T07:29:40.882Z,78.97
2023-05-09T07:32:08.171Z,78.98
2023-05-09T07:34:36.292Z,76.93
2023-05-09T07:37:03.345Z,77.67
2023-05-09T07:39:30.496Z,77.00
2023-05-09T07:41:57.416Z,76.63
2023-05-09T07:44:24.504Z,77.30
2023-05-09T07:46:51.534Z,76.28
2023-05-09T07:49:22.327Z,76.96
2023-05-09T07:51:49.399Z,76.34
2023-05-09T07:54:16.330Z,77.43
2023-05-09T07:56:46.204Z,77.31
2023-05-09T07:59:13.476Z,77.85
2023-05-09T08:01:40.558Z,77.52
2023-05-09T08:04:09.353Z,77.40
2023-05-09T08:06:37.021Z,77.73
2023-05-09T08:09:04.922Z,76.74
2023-05-09T08:11:36.249Z,75.54
2023-05-09T08:14:03.494Z,77.13
2023-05-09T08:16:30.877Z,79.07
2023-05-09T08:19:07.073Z,77.02
2023-05-09T08:21:34.131Z,76.58
2023-05-09T08:24:01.971Z,76.61
2023-05-09T08:26:29.071Z,78.82
2023-05-09T08:28:56.132Z,77.87
2023-05-09T08:31:23.324Z,78.74
2023-05-09T08:33:50.410Z,78.11
2023-05-09T08:36:17.595Z,76.71
2023-05-09T08:38:44.714Z,77.43
2023-05-09T08:41:11.781Z,76.08
2023-05-09T08:43:40.686Z,74.17
2023-05-09T08:46:09.597Z,74.91
2023-05-09T08:48:37.747Z,73.63
2023-05-09T08:51:06.342Z,75.16
2023-05-09T08:53:33.450Z,73.96
2023-05-09T08:56:03.989Z,75.26
2023-05-09T08:58:32.010Z,75.48
2023-05-09T09:00:59.809Z,76.58
2023-05-09T09:03:27.302Z,76.50
2023-05-09T09:05:55.946Z,77.17
2023-05-09T09:08:23.390Z,76.92
2023-05-09T09:10:50.536Z,75.41
2023-05-09T09:13:18.952Z,75.75
2023-05-09T09:15:47.299Z,76.63
2023-05-09T09:18:22.987Z,77.43
2023-05-09T09:20:58.066Z,77.95
2023-05-09T09:23:27.427Z,77.38
2023-05-09T09:26:05.100Z,78.11
2023-05-09T09:28:32.781Z,77.52
2023-05-09T09:30:59.904Z,77.07
2023-05-09T09:33:28.905Z,75.65
2023-05-09T09:35:57.200Z,76.02
2023-05-09T09:38:24.976Z,75.46
2023-05-09T09:40:51.994Z,76.05
2023-05-09T09:43:19.490Z,76.02
2023-05-09T09:45:51.525Z,75.96
2023-05-09T09:48:33.953Z,76.13
2023-05-09T09:51:19.227Z,75.87
2023-05-09T09:53:47.012Z,75.83
2023-05-09T09:56:14.249Z,72.48
2023-05-09T09:58:41.277Z,73.97
2023-05-09T10:01:20.279Z,73.99
2023-05-09T10:03:47.391Z,73.86
2023-05-09T10:06:16.204Z,74.43
2023-05-09T10:08:46.919Z,75.31
2023-05-09T10:11:15.499Z,75.60
2023-05-09T10:13:43.935Z,75.61
2023-05-09T10:16:11.939Z,76.15
2023-05-09T10:18:43.634Z,76.39
2023-05-09T10:21:15.328Z,76.21
2023-05-09T10:23:48.778Z,76.21
2023-05-09T10:26:25.775Z,76.12
2023-05-09T10:28:57.326Z,76.11
2023-05-09T10:31:29.278Z,75.87
2023-05-09T10:33:56.754Z,75.55
2023-05-09T10:36:26.699Z,75.33
2023-05-09T10:38:55.753Z,74.71
2023-05-09T10:41:24.022Z,76.14
2023-05-09T10:43:51.578Z,75.89
2023-05-09T10:46:19.380Z,75.80
2023-05-09T10:48:48.126Z,76.03
2023-05-09T10:51:16.524Z,76.45
2023-05-09T10:53:45.864Z,75.73
2023-05-09T10:56:32.759Z,75.20
2023-05-09T10:59:00.653Z,75.45
2023-05-09T11:01:31.810Z,75.27
2023-05-09T11:04:00.349Z,74.80
2023-05-09T11:06:50.707Z,74.47
2023-05-09T11:09:30.415Z,75.72
2023-05-09T11:11:58.917Z,76.15
2023-05-09T11:14:33.262Z,76.92
2023-05-09T11:17:03.890Z,75.19
2023-05-09T11:19:46.180Z,75.26
2023-05-09T11:22:21.372Z,75.04
2023-05-09T11:24:50.750Z,76.08
2023-05-09T11:27:21.784Z,76.06
2023-05-09T11:29:53.275Z,76.76
2023-05-09T11:32:21.960Z,77.20
2023-05-09T11:34:50.043Z,76.89
2023-05-09T11:37:18.536Z,76.93
2023-05-09T11:40:12.187Z,76.11
2023-05-09T11:42:43.844Z,76.37
2023-05-09T11:45:13.005Z,77.40
2023-05-09T11:47:41.135Z,76.82
2023-05-09T11:50:10.648Z,76.88
2023-05-09T11:52:38.624Z,75.44
2023-05-09T11:55:12.451Z,75.55
2023-05-09T11:57:50.901Z,75.71
2023-05-09T12:00:29.215Z,75.56
2023-05-09T12:02:56.537Z,76.57
2023-05-09T12:05:23.981Z,77.40
2023-05-09T12:07:52.576Z,76.89
2023-05-09T12:10:21.598Z,76.93
2023-05-09T12:12:50.478Z,77.35
2023-05-09T12:15:19.361Z,75.46
2023-05-09T12:17:49.747Z,75.45
2023-05-09T12:20:18.441Z,77.23
2023-05-09T12:22:45.604Z,77.01
2023-05-09T12:25:12.734Z,76.28
2023-05-09T12:27:41.469Z,76.63
2023-05-09T12:30:11.020Z,76.72
2023-05-09T12:32:40.561Z,77.02
2023-05-09T12:35:09.728Z,76.42
2023-05-09T12:37:44.286Z,76.21
2023-05-09T12:40:13.233Z,75.54
2023-05-09T12:42:44.482Z,74.63
2023-05-09T12:45:12.056Z,74.87
2023-05-09T12:47:39.494Z,73.91
2023-05-09T12:50:14.828Z,73.30
2023-05-09T12:52:58.982Z,73.40
2023-05-09T12:55:31.905Z,73.98
2023-05-09T12:58:01.977Z,74.95
2023-05-09T13:00:46.121Z,74.62
2023-05-09T13:03:27.537Z,75.18
2023-05-09T13:05:56.458Z,76.11
2023-05-09T13:08:23.551Z,75.85
2023-05-09T13:10:53.705Z,75.34
2023-05-09T13:13:28.797Z,74.35
2023-05-09T13:15:56.421Z,75.76
2023-05-09T13:18:24.715Z,76.34
2023-05-09T13:20:52.156Z,76.72
2023-05-09T13:23:19.218Z,76.86
2023-05-09T13:25:46.154Z,76.46
2023-05-09T13:28:13.315Z,76.74
2023-05-09T13:30:40.612Z,77.06
2023-05-09T13:33:24.023Z,76.96
2023-05-09T13:35:52.589Z,77.85
2023-05-09T13:38:19.725Z,76.59
2023-05-09T13:40:46.771Z,75.86
2023-05-09T13:43:13.759Z,76.54
2023-05-09T13:45:40.723Z,75.92
2023-05-09T13:48:07.715Z,76.75
2023-05-09T13:50:34.721Z,76.36
2023-05-09T13:53:02.088Z,76.20
2023-05-09T13:55:30.963Z,76.59
2023-05-09T13:57:58.165Z,75.52
2023-05-09T14:00:26.807Z,75.68
2023-05-09T14:02:54.169Z,74.83
2023-05-09T14:05:21.329Z,75.53
2023-05-09T14:07:48.549Z,76.85
2023-05-09T14:10:16.046Z,77.23
2023-05-09T14:12:47.410Z,76.82
2023-05-09T14:15:14.683Z,76.68
2023-05-09T14:17:43.682Z,74.74
2023-05-09T14:20:11.343Z,74.41
2023-05-09T14:22:38.406Z,75.72
2023-05-09T14:25:05.770Z,76.12
2023-05-09T14:27:34.187Z,76.29
2023-05-09T14:30:01.253Z,76.43
2023-05-09T14:32:28.364Z,76.97
2023-05-09T14:34:55.473Z,78.08
2023-05-09T14:37:22.420Z,77.90
2023-05-09T14:39:49.860Z,77.92
2023-05-09T14:42:17.002Z,77.29
2023-05-09T14:44:45.554Z,77.34
2023-05-09T14:47:13.160Z,76.68
2023-05-09T14:49:40.286Z,75.73
2023-05-09T14:52:07.364Z,76.00
2023-05-09T14:54:35.016Z,77.26
2023-05-09T14:57:04.740Z,78.13
2023-05-09T14:59:32.560Z,78.24
2023-05-09T15:02:00.951Z,77.56
2023-05-09T15:04:30.863Z,77.08
2023-05-09T15:06:59.273Z,75.59
2023-05-09T15:09:27.010Z,75.97
2023-05-09T15:11:55.154Z,75.06
2023-05-09T15:14:22.424Z,75.33
2023-05-09T15:16:51.823Z,75.84
2023-05-09T15:19:19.377Z,75.20
2023-05-09T15:21:46.462Z,75.33
2023-05-09T15:24:13.442Z,75.72
2023-05-09T15:26:40.419Z,77.19
2023-05-09T15:29:07.397Z,77.73
2023-05-09T15:31:37.124Z,78.46
2023-05-09T15:34:04.233Z,79.20
2023-05-09T15:36:32.321Z,79.23
2023-05-09T15:38:59.734Z,78.78
2023-05-09T15:41:27.381Z,78.57
2023-05-09T15:43:54.421Z,78.61
2023-05-09T15:46:21.979Z,78.53
2023-05-09T15:48:49.074Z,77.60
2023-05-09T15:51:16.189Z,76.15
2023-05-09T15:53:43.208Z,76.11
2023-05-09T15:56:10.229Z,75.77
2023-05-09T15:58:37.297Z,75.30
2023-05-09T16:01:06.307Z,76.16
2023-05-09T16:03:34.054Z,77.16
2023-05-09T16:06:01.516Z,77.17
2023-05-09T16:08:28.609Z,76.92
2023-05-09T16:10:55.671Z,76.52
2023-05-09T16:13:22.961Z,76.92
2023-05-09T16:15:51.178Z,77.26
2023-05-09T16:18:18.845Z,76.94
2023-05-09T16:20:45.922Z,76.43
2023-05-09T16:23:13.329Z,76.74
2023-05-09T16:25:40.389Z,76.96
2023-05-09T16:28:08.913Z,76.91
2023-05-09T16:30:36.600Z,74.25
2023-05-09T16:33:03.670Z,75.08
2023-05-09T16:35:30.772Z,75.63
2023-05-09T16:37:57.971Z,74.83
2023-05-09T16:40:25.062Z,74.33
2023-05-09T16:42:53.462Z,73.99
2023-05-09T16:45:20.657Z,73.99
2023-05-09T16:47:47.802Z,73.62
2023-05-09T16:50:14.947Z,73.11
2023-05-09T16:52:42.114Z,74.02
2023-05-09T16:55:09.240Z,74.04
2023-05-09T16:57:36.325Z,74.04
2023-05-09T17:00:03.886Z,73.90
2023-05-09T17:02:30.913Z,74.37
2023-05-09T17:04:58.178Z,75.07
2023-05-09T17:07:25.288Z,74.53
2023-05-09T17:09:52.449Z,74.86
2023-05-09T17:12:19.405Z,74.64
2023-05-09T17:14:48.361Z,73.75
2023-05-09T17:17:17.809Z,73.90
2023-05-09T17:19:45.676Z,73.71
2023-05-09T17:22:12.642Z,73.98
2023-05-09T17:24:39.603Z,73.86
2023-05-09T17:27:06.641Z,74.34
2023-05-09T17:29:33.696Z,74.78
2023-05-09T17:32:01.166Z,73.60
2023-05-09T17:34:29.016Z,73.58
2023-05-09T17:36:56.466Z,73.90
2023-05-09T17:39:23.971Z,74.16
2023-05-09T17:41:51.013Z,74.34
2023-05-09T17:44:18.044Z,73.49
2023-05-09T17:46:45.280Z,74.11
2023-05-09T17:49:14.257Z,72.44
2023-05-09T17:51:41.708Z,72.75
2023-05-09T17:54:09.079Z,72.14
2023-05-09T17:56:36.356Z,73.02
2023-05-09T17:59:03.368Z,72.68
2023-05-09T18:01:30.411Z,72.80
2023-05-09T18:03:57.949Z,72.95
2023-05-09T18:06:26.377Z,73.66
2023-05-09T18:08:53.605Z,73.19
2023-05-09T18:11:20.994Z,72.85
2023-05-09T18:13:48.456Z,73.34
2023-05-09T18:16:15.501Z,74.26
2023-05-09T18:18:42.549Z,75.17
2023-05-09T18:21:09.832Z,75.51
2023-05-09T18:23:37.365Z,75.50
2023-05-09T18:26:04.536Z,74.94
2023-05-09T18:28:39.210Z,74.88
2023-05-09T18:31:09.442Z,76.21
2023-05-09T18:33:39.482Z,75.34
2023-05-09T18:36:09.078Z,74.22
2023-05-09T18:38:39.505Z,73.45
2023-05-09T18:41:08.091Z,73.70
2023-05-09T18:43:36.054Z,73.95
2023-05-09T18:46:05.897Z,74.87
2023-05-09T18:48:33.639Z,75.96
2023-05-09T18:51:00.680Z,77.06
2023-05-09T18:53:29.063Z,77.19
2023-05-09T18:55:58.633Z,77.04
2023-05-09T18:58:25.616Z,76.69
2023-05-09T19:00:53.207Z,75.31
2023-05-09T19:03:21.013Z,74.58
2023-05-09T19:05:48.178Z,73.58
2023-05-09T19:08:15.287Z,73.32
2023-05-09T19:10:42.754Z,72.75
2023-05-09T19:13:09.967Z,72.67
2023-05-09T19:15:37.633Z,72.58
2023-05-09T19:18:04.968Z,72.96
2023-05-09T19:20:32.099Z,72.42
2023-05-09T19:22:59.549Z,72.47
2023-05-09T19:25:27.060Z,73.24
2023-05-09T19:27:54.228Z,73.14
2023-05-09T19:30:21.514Z,73.22
2023-05-09T19:32:48.805Z,72.58
2023-05-09T19:35:16.164Z,72.67
2023-05-09T19:37:43.354Z,72.47
2023-05-09T19:40:11.557Z,71.85
2023-05-09T19:42:39.560Z,72.07
2023-05-09T19:45:07.026Z,71.74
2023-05-09T19:47:34.200Z,72.03
2023-05-09T19:50:02.393Z,72.21
2023-05-09T19:52:32.523Z,72.30
2023-05-09T19:54:59.518Z,71.86
2023-05-09T19:57:26.779Z,72.08
2023-05-09T19:59:54.725Z,71.84
2023-05-09T20:02:22.029Z,72.77
2023-05-09T20:04:50.099Z,72.64
2023-05-09T20:07:17.748Z,72.03
2023-05-09T20:09:45.068Z,72.54
2023-05-09T20:12:13.354Z,73.79
2023-05-09T20:14:40.493Z,73.88
2023-05-09T20:17:07.612Z,74.36
2023-05-09T20:19:34.884Z,74.64
2023-05-09T20:22:02.736Z,73.18
2023-05-09T20:24:33.431Z,72.79
2023-05-09T20:27:02.424Z,72.49
2023-05-09T20:29:29.424Z,73.48
2023-05-09T20:31:56.765Z,73.56
2023-05-09T20:34:24.785Z,74.44
2023-05-09T20:36:54.092Z,74.69
2023-05-09T20:39:22.002Z,75.21
2023-05-09T20:41:50.552Z,75.25
2023-05-09T20:44:18.208Z,73.69
2023-05-09T20:46:46.166Z,73.61
2023-05-09T20:49:13.413Z,72.67
2023-05-09T20:51:40.636Z,73.54
2023-05-09T20:54:07.996Z,72.28
2023-05-09T20:56:35.755Z,72.67
2023-05-09T20:59:04.442Z,73.15
2023-05-09T21:01:34.493Z,72.87
2023-05-09T21:04:01.585Z,73.25
2023-05-09T21:06:28.763Z,72.99
2023-05-09T21:08:55.840Z,73.47
2023-05-09T21:11:22.829Z,72.22
2023-05-09T21:13:50.788Z,72.01
2023-05-09T21:16:17.946Z,72.98
2023-05-09T21:18:45.152Z,72.43
2023-05-09T21:21:12.211Z,72.85
2023-05-09T21:23:39.341Z,72.35
2023-05-09T21:26:06.361Z,72.07
2023-05-09T21:28:33.725Z,72.96
2023-05-09T21:31:03.764Z,74.27
2023-05-09T21:33:31.274Z,75.30
2023-05-09T21:35:59.401Z,76.24
2023-05-09T21:38:26.606Z,76.28
2023-05-09T21:40:53.916Z,76.17
2023-05-09T21:43:21.164Z,75.62
2023-05-09T21:45:48.473Z,75.35
2023-05-09T21:48:17.296Z,74.89
2023-05-09T21:50:47.524Z,73.96
2023-05-09T21:53:14.700Z,75.02
2023-05-09T21:55:41.735Z,74.94
2023-05-09T21:58:08.876Z,73.75
2023-05-09T22:00:35.920Z,71.36
2023-05-09T22:03:03.113Z,72.65
2023-05-09T22:05:30.309Z,71.78
2023-05-09T22:07:57.462Z,73.43
2023-05-09T22:10:24.580Z,74.02
2023-05-09T22:12:51.743Z,74.08
2023-05-09T22:15:18.952Z,74.16
2023-05-09T22:17:48.831Z,75.22
2023-05-09T22:20:16.803Z,73.75
2023-05-09T22:22:44.184Z,73.06
2023-05-09T22:25:11.154Z,74.87
2023-05-09T22:27:39.524Z,76.18
2023-05-09T22:30:07.613Z,75.65
2023-05-09T22:32:34.801Z,75.93
2023-05-09T22:35:02.522Z,75.64
2023-05-09T22:37:29.646Z,75.70
2023-05-09T22:39:56.736Z,73.61
2023-05-09T22:42:23.856Z,73.01
2023-05-09T22:44:50.945Z,73.23
2023-05-09T22:47:18.049Z,73.24
2023-05-09T22:49:45.964Z,73.68
2023-05-09T22:52:13.047Z,73.78
2023-05-09T22:54:40.698Z,73.85
2023-05-09T22:57:07.768Z,73.49
2023-05-09T22:59:34.903Z,73.94
2023-05-09T23:02:02.011Z,73.09
2023-05-09T23:04:29.242Z,74.90
2023-05-09T23:06:56.671Z,73.76
2023-05-09T23:09:23.924Z,73.47
2023-05-09T23:11:51.082Z,73.12
2023-05-09T23:14:18.240Z,74.20
2023-05-09T23:16:45.320Z,75.62
2023-05-09T23:19:12.453Z,74.68
2023-05-09T23:21:39.505Z,73.43
2023-05-09T23:24:06.890Z,72.73
2023-05-09T23:26:33.911Z,72.69
2023-05-09T23:29:00.928Z,73.84
2023-05-09T23:31:28.122Z,73.71
2023-05-09T23:33:55.241Z,73.95
2023-05-09T23:36:22.333Z,73.41
2023-05-09T23:38:49.326Z,75.12
2023-05-09T23:41:16.664Z,74.91
2023-05-09T23:43:43.628Z,74.80
2023-05-09T23:46:10.805Z,76.37
2023-05-09T23:48:37.985Z,76.74
2023-05-09T23:51:05.597Z,74.96
2023-05-09T23:53:35.323Z,75.47
2023-05-09T23:56:02.985Z,75.49
2023-05-09T23:58:30.056Z,76.16
